ESSD/BLE METAR and TAF weather

Enter ICAO airport designator
Station Type Date Time Source
ESSD METAR 2020/10/20 17:50 UTC NOAA

ESSD 201750Z AUTO 11004KT 6000 -RA OVC005/// 01/01 Q1008


Station Type Date Time Source
ESSD Decoded METAR 2020/10/20 17:50 UTC NOAA

Borlange, Sweden (ESSD) 60-26N 015-31E 0M
Oct 20, 2020 - 01:50 PM EDT / 2020.10.20 1750 UTC
Wind: from the ESE (110 degrees) at 5 MPH (4 KT):0
Visibility: 3 mile(s):0
Sky conditions: overcast
Weather: light rain
Temperature: 33 F (1 C)
Windchill: 28 F (-2 C):1
Dew Point: 33 F (1 C)
Relative Humidity: 100%
Pressure (altimeter): 29.77 in. Hg (1008 hPa)
ob: ESSD 201750Z AUTO 11004KT 6000 -RA OVC005/// 01/01 Q1008
cycle: 18

Station Type Date Time Source
ESSD TAF 2018/05/02 04:48 UTC NOAA

TAF TAF ESSD 020320Z 0204/0412 27008KT 9999 BKN019 PROB40 0204/0209 BKN006

Example: see airport list